Mill Creek, West Virginia
Current Conditions -  °F | °C
As of 12:51 AM on Friday 19 Dec 2014 (Local Time) from KEKN Reporting Station
Overcast Overcast  
Wind Chill: 21°   Ceiling: 1300
Heat Index: 26°   Visibility: 10mi
Dew Point: 22°   Wind: 5mph
Humidity: 84%   Direction: 260°W
Pressure: 30.13"   Gusts: NA
Location:  38.73°N, 79.97°W
Report Text: KEKN 190551Z AUTO 26004KT 10SM OVC013 M03/M06 A3013 RMK AO2 SLP230 60000 T10331056 11028 21033 50002 TSNO
Loading
Personal Weather Stations






























Interactive Weather Map New forecast layout! Learn more

10-Day Weather Forecast

Advertisements
Track Severe Weather on mobile